sensor_id;sensor_type;location;lat;lon;timestamp;temperature;humidity
27506;DHT22;14939;43.596;1.320;2022-07-01T00:02:16;14.50;99.90
27506;DHT22;14939;43.596;1.320;2022-07-01T00:04:41;14.50;99.90
27506;DHT22;14939;43.596;1.320;2022-07-01T00:07:07;14.50;99.90
27506;DHT22;14939;43.596;1.320;2022-07-01T00:09:33;14.50;99.90
27506;DHT22;14939;43.596;1.320;2022-07-01T00:11:59;14.50;99.90
27506;DHT22;14939;43.596;1.320;2022-07-01T00:14:24;14.50;99.90
27506;DHT22;14939;43.596;1.320;2022-07-01T00:16:50;14.50;99.90
27506;DHT22;14939;43.596;1.320;2022-07-01T00:19:16;14.50;99.90
27506;DHT22;14939;43.596;1.320;2022-07-01T00:21:42;14.40;99.90
27506;DHT22;14939;43.596;1.320;2022-07-01T00:24:08;14.50;99.90
27506;DHT22;14939;43.596;1.320;2022-07-01T00:26:34;14.40;99.90
27506;DHT22;14939;43.596;1.320;2022-07-01T00:29:01;14.40;99.90
27506;DHT22;14939;43.596;1.320;2022-07-01T00:31:26;14.40;99.90
27506;DHT22;14939;43.596;1.320;2022-07-01T00:33:52;14.40;99.90
27506;DHT22;14939;43.596;1.320;2022-07-01T00:36:18;14.40;99.90
27506;DHT22;14939;43.596;1.320;2022-07-01T00:38:43;14.40;99.90
27506;DHT22;14939;43.596;1.320;2022-07-01T00:41:09;14.40;99.90
27506;DHT22;14939;43.596;1.320;2022-07-01T00:43:38;14.30;99.90
27506;DHT22;14939;43.596;1.320;2022-07-01T00:46:04;14.40;99.90
27506;DHT22;14939;43.596;1.320;2022-07-01T00:48:32;14.30;99.90
27506;DHT22;14939;43.596;1.320;2022-07-01T00:50:59;14.30;99.90
27506;DHT22;14939;43.596;1.320;2022-07-01T00:53:25;14.30;99.90
27506;DHT22;14939;43.596;1.320;2022-07-01T00:55:51;14.30;99.90
27506;DHT22;14939;43.596;1.320;2022-07-01T00:58:17;14.30;99.90
27506;DHT22;14939;43.596;1.320;2022-07-01T01:00:43;14.30;99.90
27506;DHT22;14939;43.596;1.320;2022-07-01T01:03:09;14.30;99.90
27506;DHT22;14939;43.596;1.320;2022-07-01T01:05:40;14.30;99.90
27506;DHT22;14939;43.596;1.320;2022-07-01T01:08:08;14.30;99.90
27506;DHT22;14939;43.596;1.320;2022-07-01T01:10:36;14.30;99.90
27506;DHT22;14939;43.596;1.320;2022-07-01T01:13:03;14.30;99.90
27506;DHT22;14939;43.596;1.320;2022-07-01T01:15:30;14.20;99.90
27506;DHT22;14939;43.596;1.320;2022-07-01T01:17:56;14.20;99.90
27506;DHT22;14939;43.596;1.320;2022-07-01T01:20:22;14.20;99.90
27506;DHT22;14939;43.596;1.320;2022-07-01T01:22:48;14.20;99.90
27506;DHT22;14939;43.596;1.320;2022-07-01T01:25:17;14.20;99.90
27506;DHT22;14939;43.596;1.320;2022-07-01T01:27:43;14.20;99.90
27506;DHT22;14939;43.596;1.320;2022-07-01T01:30:11;14.20;99.90
27506;DHT22;14939;43.596;1.320;2022-07-01T01:32:40;14.20;99.90
27506;DHT22;14939;43.596;1.320;2022-07-01T01:35:07;14.20;99.90
27506;DHT22;14939;43.596;1.320;2022-07-01T01:37:33;14.20;99.90
27506;DHT22;14939;43.596;1.320;2022-07-01T01:39:59;14.20;99.90
27506;DHT22;14939;43.596;1.320;2022-07-01T01:42:24;14.20;99.90
27506;DHT22;14939;43.596;1.320;2022-07-01T01:44:50;14.20;99.90
27506;DHT22;14939;43.596;1.320;2022-07-01T01:47:16;14.20;99.90
27506;DHT22;14939;43.596;1.320;2022-07-01T01:49:42;14.20;99.90
27506;DHT22;14939;43.596;1.320;2022-07-01T01:52:07;14.20;99.90
27506;DHT22;14939;43.596;1.320;2022-07-01T01:54:33;14.20;99.90
27506;DHT22;14939;43.596;1.320;2022-07-01T01:57:03;14.20;99.90
27506;DHT22;14939;43.596;1.320;2022-07-01T01:59:29;14.20;99.90
27506;DHT22;14939;43.596;1.320;2022-07-01T02:01:54;14.20;99.90
27506;DHT22;14939;43.596;1.320;2022-07-01T02:04:20;14.20;99.90
27506;DHT22;14939;43.596;1.320;2022-07-01T02:06:46;14.20;99.90
27506;DHT22;14939;43.596;1.320;2022-07-01T02:09:12;14.20;99.90
27506;DHT22;14939;43.596;1.320;2022-07-01T02:11:38;14.10;99.90
27506;DHT22;14939;43.596;1.320;2022-07-01T02:14:04;14.10;99.90
27506;DHT22;14939;43.596;1.320;2022-07-01T02:16:30;14.10;99.90
27506;DHT22;14939;43.596;1.320;2022-07-01T02:18:56;14.10;99.90
27506;DHT22;14939;43.596;1.320;2022-07-01T02:21:21;14.10;99.90
27506;DHT22;14939;43.596;1.320;2022-07-01T02:23:47;14.10;99.90
27506;DHT22;14939;43.596;1.320;2022-07-01T02:26:13;14.10;99.90
27506;DHT22;14939;43.596;1.320;2022-07-01T02:28:39;14.10;99.90
27506;DHT22;14939;43.596;1.320;2022-07-01T02:31:05;14.10;99.90
27506;DHT22;14939;43.596;1.320;2022-07-01T02:33:30;14.10;99.90
27506;DHT22;14939;43.596;1.320;2022-07-01T02:35:56;14.10;99.90
27506;DHT22;14939;43.596;1.320;2022-07-01T02:38:22;14.10;99.90
27506;DHT22;14939;43.596;1.320;2022-07-01T02:40:48;14.10;99.90
27506;DHT22;14939;43.596;1.320;2022-07-01T02:43:14;14.10;99.90
27506;DHT22;14939;43.596;1.320;2022-07-01T02:45:42;14.10;99.90
27506;DHT22;14939;43.596;1.320;2022-07-01T02:48:08;14.10;99.90
27506;DHT22;14939;43.596;1.320;2022-07-01T02:50:33;14.10;99.90
27506;DHT22;14939;43.596;1.320;2022-07-01T02:52:59;14.10;99.90
27506;DHT22;14939;43.596;1.320;2022-07-01T02:55:25;14.10;99.90
27506;DHT22;14939;43.596;1.320;2022-07-01T02:57:52;14.00;99.90
27506;DHT22;14939;43.596;1.320;2022-07-01T03:00:19;14.00;99.90
27506;DHT22;14939;43.596;1.320;2022-07-01T03:02:45;14.10;99.90
27506;DHT22;14939;43.596;1.320;2022-07-01T03:05:11;14.00;99.90
27506;DHT22;14939;43.596;1.320;2022-07-01T03:07:38;14.00;99.90
27506;DHT22;14939;43.596;1.320;2022-07-01T03:10:05;14.00;99.90
27506;DHT22;14939;43.596;1.320;2022-07-01T03:12:31;14.00;99.90
27506;DHT22;14939;43.596;1.320;2022-07-01T03:15:13;14.10;99.90
27506;DHT22;14939;43.596;1.320;2022-07-01T03:17:43;14.00;99.90
27506;DHT22;14939;43.596;1.320;2022-07-01T03:20:11;14.00;99.90
27506;DHT22;14939;43.596;1.320;2022-07-01T03:22:38;14.00;99.90
27506;DHT22;14939;43.596;1.320;2022-07-01T03:25:05;14.00;99.90
27506;DHT22;14939;43.596;1.320;2022-07-01T03:27:32;14.00;99.90
27506;DHT22;14939;43.596;1.320;2022-07-01T03:29:58;13.90;99.90
27506;DHT22;14939;43.596;1.320;2022-07-01T03:32:24;13.90;99.90
27506;DHT22;14939;43.596;1.320;2022-07-01T03:34:51;13.90;99.90
27506;DHT22;14939;43.596;1.320;2022-07-01T03:37:18;13.90;99.90
27506;DHT22;14939;43.596;1.320;2022-07-01T03:39:44;13.80;99.90
27506;DHT22;14939;43.596;1.320;2022-07-01T03:42:10;13.80;99.90
27506;DHT22;14939;43.596;1.320;2022-07-01T03:44:36;13.80;99.90
27506;DHT22;14939;43.596;1.320;2022-07-01T03:47:03;13.80;99.90
27506;DHT22;14939;43.596;1.320;2022-07-01T03:49:33;13.80;99.90
27506;DHT22;14939;43.596;1.320;2022-07-01T03:52:00;13.80;99.90
27506;DHT22;14939;43.596;1.320;2022-07-01T03:54:25;13.70;99.90
27506;DHT22;14939;43.596;1.320;2022-07-01T03:57:06;13.70;99.90
27506;DHT22;14939;43.596;1.320;2022-07-01T03:59:34;13.60;99.90
27506;DHT22;14939;43.596;1.320;2022-07-01T04:02:01;13.60;99.90
27506;DHT22;14939;43.596;1.320;2022-07-01T04:04:28;13.50;99.90
27506;DHT22;14939;43.596;1.320;2022-07-01T04:06:56;13.50;99.90
27506;DHT22;14939;43.596;1.320;2022-07-01T04:09:23;13.50;99.90
27506;DHT22;14939;43.596;1.320;2022-07-01T04:11:50;13.40;99.90
27506;DHT22;14939;43.596;1.320;2022-07-01T04:14:16;13.40;99.90
27506;DHT22;14939;43.596;1.320;2022-07-01T04:16:43;13.40;99.90
27506;DHT22;14939;43.596;1.320;2022-07-01T04:19:08;13.30;99.90
27506;DHT22;14939;43.596;1.320;2022-07-01T04:21:35;13.30;99.90
27506;DHT22;14939;43.596;1.320;2022-07-01T04:24:20;13.30;99.90
27506;DHT22;14939;43.596;1.320;2022-07-01T04:26:49;13.20;99.90
27506;DHT22;14939;43.596;1.320;2022-07-01T04:29:14;13.20;99.90
27506;DHT22;14939;43.596;1.320;2022-07-01T04:31:40;13.10;99.90
27506;DHT22;14939;43.596;1.320;2022-07-01T04:34:07;13.10;99.90
27506;DHT22;14939;43.596;1.320;2022-07-01T04:36:34;13.20;99.90
27506;DHT22;14939;43.596;1.320;2022-07-01T04:39:00;13.10;99.90
27506;DHT22;14939;43.596;1.320;2022-07-01T04:41:26;13.10;99.90
27506;DHT22;14939;43.596;1.320;2022-07-01T04:44:11;13.10;99.90
27506;DHT22;14939;43.596;1.320;2022-07-01T04:46:37;13.20;99.90
27506;DHT22;14939;43.596;1.320;2022-07-01T04:49:03;13.20;99.90
27506;DHT22;14939;43.596;1.320;2022-07-01T04:51:29;13.30;99.90
27506;DHT22;14939;43.596;1.320;2022-07-01T04:53:55;13.30;99.90
27506;DHT22;14939;43.596;1.320;2022-07-01T04:56:21;13.40;99.90
27506;DHT22;14939;43.596;1.320;2022-07-01T04:58:47;13.50;99.90
27506;DHT22;14939;43.596;1.320;2022-07-01T05:01:13;13.60;99.90
27506;DHT22;14939;43.596;1.320;2022-07-01T05:03:38;13.70;99.90
27506;DHT22;14939;43.596;1.320;2022-07-01T05:06:04;13.70;99.90
27506;DHT22;14939;43.596;1.320;2022-07-01T05:08:30;13.80;99.90
27506;DHT22;14939;43.596;1.320;2022-07-01T05:10:56;13.80;99.90
27506;DHT22;14939;43.596;1.320;2022-07-01T05:13:22;13.80;99.90
27506;DHT22;14939;43.596;1.320;2022-07-01T05:15:48;13.90;99.90
27506;DHT22;14939;43.596;1.320;2022-07-01T05:18:14;13.90;99.90
27506;DHT22;14939;43.596;1.320;2022-07-01T05:20:58;14.00;99.90
27506;DHT22;14939;43.596;1.320;2022-07-01T05:23:42;14.00;99.90
27506;DHT22;14939;43.596;1.320;2022-07-01T05:26:07;14.00;99.90
27506;DHT22;14939;43.596;1.320;2022-07-01T05:28:33;14.00;99.90
27506;DHT22;14939;43.596;1.320;2022-07-01T05:30:59;14.00;99.90
27506;DHT22;14939;43.596;1.320;2022-07-01T05:33:25;14.10;99.90
27506;DHT22;14939;43.596;1.320;2022-07-01T05:35:52;14.10;99.90
27506;DHT22;14939;43.596;1.320;2022-07-01T05:38:18;14.10;99.90
27506;DHT22;14939;43.596;1.320;2022-07-01T05:40:44;14.20;99.90
27506;DHT22;14939;43.596;1.320;2022-07-01T05:43:10;14.20;99.90
27506;DHT22;14939;43.596;1.320;2022-07-01T05:45:35;14.20;99.90
27506;DHT22;14939;43.596;1.320;2022-07-01T05:48:01;14.20;99.90
27506;DHT22;14939;43.596;1.320;2022-07-01T05:50:27;14.20;99.90
27506;DHT22;14939;43.596;1.320;2022-07-01T05:52:52;14.20;99.90
27506;DHT22;14939;43.596;1.320;2022-07-01T05:55:18;14.20;99.90
27506;DHT22;14939;43.596;1.320;2022-07-01T05:57:44;14.20;99.90
27506;DHT22;14939;43.596;1.320;2022-07-01T06:00:10;14.20;99.90
27506;DHT22;14939;43.596;1.320;2022-07-01T06:02:36;14.30;99.90
27506;DHT22;14939;43.596;1.320;2022-07-01T06:05:02;14.30;99.90
27506;DHT22;14939;43.596;1.320;2022-07-01T06:07:29;14.30;99.90
27506;DHT22;14939;43.596;1.320;2022-07-01T06:09:58;14.50;99.90
27506;DHT22;14939;43.596;1.320;2022-07-01T06:12:24;14.60;99.90
27506;DHT22;14939;43.596;1.320;2022-07-01T06:14:50;14.60;99.90
27506;DHT22;14939;43.596;1.320;2022-07-01T06:17:17;14.70;99.90
27506;DHT22;14939;43.596;1.320;2022-07-01T06:19:42;14.70;99.90
27506;DHT22;14939;43.596;1.320;2022-07-01T06:22:09;14.80;99.90
27506;DHT22;14939;43.596;1.320;2022-07-01T06:24:35;14.90;99.90
27506;DHT22;14939;43.596;1.320;2022-07-01T06:27:01;15.00;99.90
27506;DHT22;14939;43.596;1.320;2022-07-01T06:29:26;15.10;99.90
27506;DHT22;14939;43.596;1.320;2022-07-01T06:31:54;15.20;99.90
27506;DHT22;14939;43.596;1.320;2022-07-01T06:34:20;15.20;99.90
27506;DHT22;14939;43.596;1.320;2022-07-01T06:36:46;15.20;99.90
27506;DHT22;14939;43.596;1.320;2022-07-01T06:39:12;15.30;99.90
27506;DHT22;14939;43.596;1.320;2022-07-01T06:41:37;15.30;99.90
27506;DHT22;14939;43.596;1.320;2022-07-01T06:44:03;15.40;99.90
27506;DHT22;14939;43.596;1.320;2022-07-01T06:46:31;15.50;99.90
27506;DHT22;14939;43.596;1.320;2022-07-01T06:48:58;15.60;99.90
27506;DHT22;14939;43.596;1.320;2022-07-01T06:51:24;15.70;99.90
27506;DHT22;14939;43.596;1.320;2022-07-01T06:53:50;15.70;99.90
27506;DHT22;14939;43.596;1.320;2022-07-01T06:56:17;15.70;99.90
27506;DHT22;14939;43.596;1.320;2022-07-01T06:58:43;15.70;99.90
27506;DHT22;14939;43.596;1.320;2022-07-01T07:01:11;15.90;99.90
27506;DHT22;14939;43.596;1.320;2022-07-01T07:03:37;16.00;99.90
27506;DHT22;14939;43.596;1.320;2022-07-01T07:06:04;16.10;99.90
27506;DHT22;14939;43.596;1.320;2022-07-01T07:08:30;16.30;99.90
27506;DHT22;14939;43.596;1.320;2022-07-01T07:10:56;16.30;99.90
27506;DHT22;14939;43.596;1.320;2022-07-01T07:13:22;16.40;99.90
27506;DHT22;14939;43.596;1.320;2022-07-01T07:15:48;16.30;99.90
27506;DHT22;14939;43.596;1.320;2022-07-01T07:18:14;16.30;99.90
27506;DHT22;14939;43.596;1.320;2022-07-01T07:20:39;16.50;99.90
27506;DHT22;14939;43.596;1.320;2022-07-01T07:23:05;16.60;99.90
27506;DHT22;14939;43.596;1.320;2022-07-01T07:25:31;16.90;99.90
27506;DHT22;14939;43.596;1.320;2022-07-01T07:27:57;17.00;99.90
27506;DHT22;14939;43.596;1.320;2022-07-01T07:30:23;17.00;99.90
27506;DHT22;14939;43.596;1.320;2022-07-01T07:32:49;16.50;99.90
27506;DHT22;14939;43.596;1.320;2022-07-01T07:35:15;16.40;99.90
27506;DHT22;14939;43.596;1.320;2022-07-01T07:37:42;16.40;99.90
27506;DHT22;14939;43.596;1.320;2022-07-01T07:40:09;16.40;99.90
27506;DHT22;14939;43.596;1.320;2022-07-01T07:42:38;16.40;99.90
27506;DHT22;14939;43.596;1.320;2022-07-01T07:45:04;16.70;99.90
27506;DHT22;14939;43.596;1.320;2022-07-01T07:47:35;16.60;99.90
27506;DHT22;14939;43.596;1.320;2022-07-01T07:50:01;16.80;99.90
27506;DHT22;14939;43.596;1.320;2022-07-01T07:52:28;16.90;99.90
27506;DHT22;14939;43.596;1.320;2022-07-01T07:54:54;17.00;99.90
27506;DHT22;14939;43.596;1.320;2022-07-01T07:57:19;17.20;99.90
27506;DHT22;14939;43.596;1.320;2022-07-01T07:59:45;17.40;99.90
27506;DHT22;14939;43.596;1.320;2022-07-01T08:02:11;17.30;99.90
27506;DHT22;14939;43.596;1.320;2022-07-01T08:04:37;17.20;99.90
27506;DHT22;14939;43.596;1.320;2022-07-01T08:07:03;17.20;99.90
27506;DHT22;14939;43.596;1.320;2022-07-01T08:09:28;17.10;99.90
27506;DHT22;14939;43.596;1.320;2022-07-01T08:11:54;17.00;99.90
27506;DHT22;14939;43.596;1.320;2022-07-01T08:14:20;17.00;99.90
27506;DHT22;14939;43.596;1.320;2022-07-01T08:16:45;17.40;99.90
27506;DHT22;14939;43.596;1.320;2022-07-01T08:19:11;17.90;99.90
27506;DHT22;14939;43.596;1.320;2022-07-01T08:21:37;18.20;99.90
27506;DHT22;14939;43.596;1.320;2022-07-01T08:24:03;18.00;99.90
27506;DHT22;14939;43.596;1.320;2022-07-01T08:26:29;17.70;99.90
27506;DHT22;14939;43.596;1.320;2022-07-01T08:28:56;18.00;99.90
27506;DHT22;14939;43.596;1.320;2022-07-01T08:31:21;17.80;99.90
27506;DHT22;14939;43.596;1.320;2022-07-01T08:33:47;17.70;99.90
27506;DHT22;14939;43.596;1.320;2022-07-01T08:36:13;17.70;99.90
27506;DHT22;14939;43.596;1.320;2022-07-01T08:38:39;17.40;99.90
27506;DHT22;14939;43.596;1.320;2022-07-01T08:41:05;17.30;99.90
27506;DHT22;14939;43.596;1.320;2022-07-01T08:43:31;17.30;99.90
27506;DHT22;14939;43.596;1.320;2022-07-01T08:45:59;17.50;99.90
27506;DHT22;14939;43.596;1.320;2022-07-01T08:48:30;17.90;99.90
27506;DHT22;14939;43.596;1.320;2022-07-01T08:50:56;18.30;99.90
27506;DHT22;14939;43.596;1.320;2022-07-01T08:53:22;18.40;99.90
27506;DHT22;14939;43.596;1.320;2022-07-01T08:55:47;18.40;99.90
27506;DHT22;14939;43.596;1.320;2022-07-01T08:58:32;18.60;99.90
27506;DHT22;14939;43.596;1.320;2022-07-01T09:03:39;18.60;99.90
27506;DHT22;14939;43.596;1.320;2022-07-01T09:06:12;18.50;99.90
27506;DHT22;14939;43.596;1.320;2022-07-01T09:08:38;18.00;99.90
27506;DHT22;14939;43.596;1.320;2022-07-01T09:11:13;18.20;99.90
27506;DHT22;14939;43.596;1.320;2022-07-01T09:13:40;18.20;99.90
27506;DHT22;14939;43.596;1.320;2022-07-01T09:16:16;18.30;99.10
27506;DHT22;14939;43.596;1.320;2022-07-01T09:19:03;18.20;99.20
27506;DHT22;14939;43.596;1.320;2022-07-01T09:21:32;18.60;98.90
27506;DHT22;14939;43.596;1.320;2022-07-01T09:24:02;18.40;97.70
27506;DHT22;14939;43.596;1.320;2022-07-01T09:26:28;18.30;97.10
27506;DHT22;14939;43.596;1.320;2022-07-01T09:28:54;18.20;96.80
27506;DHT22;14939;43.596;1.320;2022-07-01T09:31:21;18.60;97.10
27506;DHT22;14939;43.596;1.320;2022-07-01T09:34:05;18.70;94.80
27506;DHT22;14939;43.596;1.320;2022-07-01T09:36:37;19.00;95.70
27506;DHT22;14939;43.596;1.320;2022-07-01T09:39:05;19.50;93.80
27506;DHT22;14939;43.596;1.320;2022-07-01T09:41:38;20.30;91.20
27506;DHT22;14939;43.596;1.320;2022-07-01T09:44:07;20.90;90.00
27506;DHT22;14939;43.596;1.320;2022-07-01T09:46:34;20.60;81.00
27506;DHT22;14939;43.596;1.320;2022-07-01T09:48:59;20.60;81.70
27506;DHT22;14939;43.596;1.320;2022-07-01T09:51:26;19.90;86.30
27506;DHT22;14939;43.596;1.320;2022-07-01T09:53:52;19.70;89.60
27506;DHT22;14939;43.596;1.320;2022-07-01T09:56:19;19.60;89.30
27506;DHT22;14939;43.596;1.320;2022-07-01T09:58:45;19.50;86.10
27506;DHT22;14939;43.596;1.320;2022-07-01T10:01:13;19.50;85.00
27506;DHT22;14939;43.596;1.320;2022-07-01T10:03:40;19.40;83.40
27506;DHT22;14939;43.596;1.320;2022-07-01T10:06:10;19.40;83.40
27506;DHT22;14939;43.596;1.320;2022-07-01T10:14:39;19.90;80.80
27506;DHT22;14939;43.596;1.320;2022-07-01T10:17:07;19.50;80.80
27506;DHT22;14939;43.596;1.320;2022-07-01T10:19:33;19.40;76.60
27506;DHT22;14939;43.596;1.320;2022-07-01T10:22:25;19.20;79.70
27506;DHT22;14939;43.596;1.320;2022-07-01T10:24:52;19.30;78.00
27506;DHT22;14939;43.596;1.320;2022-07-01T10:27:22;19.20;78.00
27506;DHT22;14939;43.596;1.320;2022-07-01T10:29:49;19.40;76.60
27506;DHT22;14939;43.596;1.320;2022-07-01T10:34:46;19.70;72.40
27506;DHT22;14939;43.596;1.320;2022-07-01T10:37:13;19.80;72.40
27506;DHT22;14939;43.596;1.320;2022-07-01T10:42:34;20.20;71.40
27506;DHT22;14939;43.596;1.320;2022-07-01T10:45:11;20.30;70.50
27506;DHT22;14939;43.596;1.320;2022-07-01T10:47:39;20.00;71.90
27506;DHT22;14939;43.596;1.320;2022-07-01T10:50:10;20.10;72.40
27506;DHT22;14939;43.596;1.320;2022-07-01T10:52:36;20.10;70.10
27506;DHT22;14939;43.596;1.320;2022-07-01T10:55:04;19.70;69.90
27506;DHT22;14939;43.596;1.320;2022-07-01T10:57:37;19.60;67.70
27506;DHT22;14939;43.596;1.320;2022-07-01T11:02:34;19.90;70.70
27506;DHT22;14939;43.596;1.320;2022-07-01T11:05:07;20.40;70.20
27506;DHT22;14939;43.596;1.320;2022-07-01T11:07:35;20.60;68.20
27506;DHT22;14939;43.596;1.320;2022-07-01T11:10:03;20.90;64.60
27506;DHT22;14939;43.596;1.320;2022-07-01T11:12:29;21.00;63.60
27506;DHT22;14939;43.596;1.320;2022-07-01T11:14:57;20.80;60.80
27506;DHT22;14939;43.596;1.320;2022-07-01T11:17:25;20.90;60.00
27506;DHT22;14939;43.596;1.320;2022-07-01T11:19:53;21.30;59.10
27506;DHT22;14939;43.596;1.320;2022-07-01T11:22:22;21.70;59.00
27506;DHT22;14939;43.596;1.320;2022-07-01T11:24:59;22.20;56.90
27506;DHT22;14939;43.596;1.320;2022-07-01T11:27:25;21.90;58.90
27506;DHT22;14939;43.596;1.320;2022-07-01T11:29:55;21.80;56.60
27506;DHT22;14939;43.596;1.320;2022-07-01T11:32:25;21.40;57.90
27506;DHT22;14939;43.596;1.320;2022-07-01T11:34:52;21.10;58.20
27506;DHT22;14939;43.596;1.320;2022-07-01T11:37:18;21.30;57.50
27506;DHT22;14939;43.596;1.320;2022-07-01T11:40:07;21.80;57.30
27506;DHT22;14939;43.596;1.320;2022-07-01T11:42:35;22.60;55.70
27506;DHT22;14939;43.596;1.320;2022-07-01T11:45:01;22.50;52.50
27506;DHT22;14939;43.596;1.320;2022-07-01T11:47:27;22.40;53.30
27506;DHT22;14939;43.596;1.320;2022-07-01T11:49:53;22.50;51.70
27506;DHT22;14939;43.596;1.320;2022-07-01T11:52:21;22.20;52.50
27506;DHT22;14939;43.596;1.320;2022-07-01T11:54:52;22.00;53.00
27506;DHT22;14939;43.596;1.320;2022-07-01T11:57:22;21.70;52.40
27506;DHT22;14939;43.596;1.320;2022-07-01T11:59:53;21.50;53.80
27506;DHT22;14939;43.596;1.320;2022-07-01T12:02:21;22.10;53.60
27506;DHT22;14939;43.596;1.320;2022-07-01T12:04:48;22.00;52.00
27506;DHT22;14939;43.596;1.320;2022-07-01T12:07:15;22.30;52.40
27506;DHT22;14939;43.596;1.320;2022-07-01T12:09:41;22.40;50.20
27506;DHT22;14939;43.596;1.320;2022-07-01T12:12:15;22.60;49.50
27506;DHT22;14939;43.596;1.320;2022-07-01T12:14:53;22.50;50.10
27506;DHT22;14939;43.596;1.320;2022-07-01T12:17:20;22.50;48.20
27506;DHT22;14939;43.596;1.320;2022-07-01T12:19:47;22.50;47.60
27506;DHT22;14939;43.596;1.320;2022-07-01T12:22:15;22.10;48.20
27506;DHT22;14939;43.596;1.320;2022-07-01T12:24:42;21.90;49.70
27506;DHT22;14939;43.596;1.320;2022-07-01T12:27:09;21.50;49.90
27506;DHT22;14939;43.596;1.320;2022-07-01T12:32:24;21.00;52.40
27506;DHT22;14939;43.596;1.320;2022-07-01T12:34:58;21.20;53.10
27506;DHT22;14939;43.596;1.320;2022-07-01T12:37:30;21.30;52.80
27506;DHT22;14939;43.596;1.320;2022-07-01T12:40:01;21.70;52.90
27506;DHT22;14939;43.596;1.320;2022-07-01T12:42:35;22.00;52.10
27506;DHT22;14939;43.596;1.320;2022-07-01T12:45:09;22.30;50.50
27506;DHT22;14939;43.596;1.320;2022-07-01T12:47:37;22.70;51.70
27506;DHT22;14939;43.596;1.320;2022-07-01T12:50:21;22.60;49.00
27506;DHT22;14939;43.596;1.320;2022-07-01T12:53:00;22.40;47.60
27506;DHT22;14939;43.596;1.320;2022-07-01T12:55:35;22.20;47.40
27506;DHT22;14939;43.596;1.320;2022-07-01T12:58:02;22.20;50.00
27506;DHT22;14939;43.596;1.320;2022-07-01T13:00:29;22.40;49.20
27506;DHT22;14939;43.596;1.320;2022-07-01T13:02:57;22.10;48.60
27506;DHT22;14939;43.596;1.320;2022-07-01T13:05:24;22.10;48.20
27506;DHT22;14939;43.596;1.320;2022-07-01T13:07:50;21.80;47.70
27506;DHT22;14939;43.596;1.320;2022-07-01T13:10:17;21.70;49.50
27506;DHT22;14939;43.596;1.320;2022-07-01T13:12:44;21.70;47.50
27506;DHT22;14939;43.596;1.320;2022-07-01T13:15:11;22.00;48.00
27506;DHT22;14939;43.596;1.320;2022-07-01T13:17:37;22.40;44.80
27506;DHT22;14939;43.596;1.320;2022-07-01T13:20:03;22.40;45.20
27506;DHT22;14939;43.596;1.320;2022-07-01T13:22:29;22.70;46.40
27506;DHT22;14939;43.596;1.320;2022-07-01T13:24:54;22.80;46.10
27506;DHT22;14939;43.596;1.320;2022-07-01T13:27:20;22.50;45.70
27506;DHT22;14939;43.596;1.320;2022-07-01T13:29:48;22.20;44.80
27506;DHT22;14939;43.596;1.320;2022-07-01T13:32:15;22.40;45.30
27506;DHT22;14939;43.596;1.320;2022-07-01T13:34:41;22.40;45.00
27506;DHT22;14939;43.596;1.320;2022-07-01T13:37:07;22.30;43.90
27506;DHT22;14939;43.596;1.320;2022-07-01T13:39:32;22.10;45.00
27506;DHT22;14939;43.596;1.320;2022-07-01T13:41:58;22.30;45.10
27506;DHT22;14939;43.596;1.320;2022-07-01T13:44:24;22.40;45.20
27506;DHT22;14939;43.596;1.320;2022-07-01T13:46:49;22.40;43.50
27506;DHT22;14939;43.596;1.320;2022-07-01T13:49:15;22.40;43.90
27506;DHT22;14939;43.596;1.320;2022-07-01T13:51:42;22.30;44.10
27506;DHT22;14939;43.596;1.320;2022-07-01T13:54:07;22.50;43.40
27506;DHT22;14939;43.596;1.320;2022-07-01T13:56:33;22.50;41.60
27506;DHT22;14939;43.596;1.320;2022-07-01T13:58:59;22.10;43.80
27506;DHT22;14939;43.596;1.320;2022-07-01T14:01:25;22.40;41.80
27506;DHT22;14939;43.596;1.320;2022-07-01T14:03:51;22.60;42.40
27506;DHT22;14939;43.596;1.320;2022-07-01T14:06:18;22.40;39.20
27506;DHT22;14939;43.596;1.320;2022-07-01T14:08:44;22.40;39.30
27506;DHT22;14939;43.596;1.320;2022-07-01T14:11:10;22.40;40.20
27506;DHT22;14939;43.596;1.320;2022-07-01T14:13:37;22.50;40.40
27506;DHT22;14939;43.596;1.320;2022-07-01T14:16:03;22.50;40.50
27506;DHT22;14939;43.596;1.320;2022-07-01T14:18:32;22.50;40.30
27506;DHT22;14939;43.596;1.320;2022-07-01T14:20:58;22.70;39.40
27506;DHT22;14939;43.596;1.320;2022-07-01T14:23:24;22.70;38.30
27506;DHT22;14939;43.596;1.320;2022-07-01T14:25:49;22.60;39.90
27506;DHT22;14939;43.596;1.320;2022-07-01T14:28:15;22.60;38.90
27506;DHT22;14939;43.596;1.320;2022-07-01T14:30:41;22.60;38.10
27506;DHT22;14939;43.596;1.320;2022-07-01T14:33:06;22.50;37.00
27506;DHT22;14939;43.596;1.320;2022-07-01T14:35:32;22.30;39.50
27506;DHT22;14939;43.596;1.320;2022-07-01T14:37:58;22.60;38.40
27506;DHT22;14939;43.596;1.320;2022-07-01T14:40:25;22.60;36.90
27506;DHT22;14939;43.596;1.320;2022-07-01T14:42:50;22.80;37.30
27506;DHT22;14939;43.596;1.320;2022-07-01T14:45:16;22.90;37.50
27506;DHT22;14939;43.596;1.320;2022-07-01T14:47:43;23.00;36.50
27506;DHT22;14939;43.596;1.320;2022-07-01T14:50:10;23.10;34.80
27506;DHT22;14939;43.596;1.320;2022-07-01T14:52:36;23.40;34.70
27506;DHT22;14939;43.596;1.320;2022-07-01T14:55:03;27.00;31.10
27506;DHT22;14939;43.596;1.320;2022-07-01T14:57:29;29.60;23.90
27506;DHT22;14939;43.596;1.320;2022-07-01T14:59:55;31.10;21.40
27506;DHT22;14939;43.596;1.320;2022-07-01T15:02:22;31.50;19.20
27506;DHT22;14939;43.596;1.320;2022-07-01T15:04:48;33.30;18.10
27506;DHT22;14939;43.596;1.320;2022-07-01T15:07:14;34.40;15.90
27506;DHT22;14939;43.596;1.320;2022-07-01T15:09:41;34.20;14.20
27506;DHT22;14939;43.596;1.320;2022-07-01T15:12:07;34.00;14.00
27506;DHT22;14939;43.596;1.320;2022-07-01T15:14:33;33.50;14.70
27506;DHT22;14939;43.596;1.320;2022-07-01T15:16:58;32.40;15.00
27506;DHT22;14939;43.596;1.320;2022-07-01T15:19:25;33.30;14.60
27506;DHT22;14939;43.596;1.320;2022-07-01T15:21:55;34.70;13.00
27506;DHT22;14939;43.596;1.320;2022-07-01T15:24:22;36.30;10.30
27506;DHT22;14939;43.596;1.320;2022-07-01T15:26:48;37.80;9.50
27506;DHT22;14939;43.596;1.320;2022-07-01T15:29:14;37.50;6.90
27506;DHT22;14939;43.596;1.320;2022-07-01T15:31:40;35.90;9.00
27506;DHT22;14939;43.596;1.320;2022-07-01T15:34:06;35.20;9.00
27506;DHT22;14939;43.596;1.320;2022-07-01T15:36:32;35.00;9.20
27506;DHT22;14939;43.596;1.320;2022-07-01T15:38:58;35.00;10.00
27506;DHT22;14939;43.596;1.320;2022-07-01T15:41:27;36.10;8.60
27506;DHT22;14939;43.596;1.320;2022-07-01T15:43:53;35.00;8.70
27506;DHT22;14939;43.596;1.320;2022-07-01T15:46:20;34.90;8.90
27506;DHT22;14939;43.596;1.320;2022-07-01T15:48:45;34.60;8.30
27506;DHT22;14939;43.596;1.320;2022-07-01T15:51:12;34.30;8.10
27506;DHT22;14939;43.596;1.320;2022-07-01T15:53:38;34.50;9.00